Time;durP1;ratioP1;P1;durP2;ratioP2;P2;SDS_P1;SDS_P2;PMS_P1;PMS_P2;Temp;Humidity;BMP_temperature;BMP_pressure;BME280_temperature;BME280_humidity;BME280_pressure;Samples;Min_cycle;Max_cycle;Signal;HPM_P1;HPM_P2
2020/12/30 12:01:55;;;;;;;6.65;4.67;;;;;;;8.10;68.20;97125.92;1739940;78;23902;-70
2020/12/30 12:04:28;;;;;;;9.18;4.42;;;;;;;8.23;67.82;97119.09;1671835;85;21591;-66
2020/12/30 12:07:00;;;;;;;7.62;3.85;;;;;;;8.35;67.58;97111.89;1671723;85;21073;-67
2020/12/30 12:09:29;;;;;;;6.72;2.98;;;;;;;8.49;67.09;97101.45;1671244;85;21044;-67
2020/12/30 12:11:57;;;;;;;5.25;3.08;;;;;;;8.61;66.63;97096.43;1671500;85;21053;-69
2020/12/30 12:14:24;;;;;;;2.47;2.20;;;;;;;8.70;66.57;97092.13;1671694;85;21020;-69
2020/12/30 12:16:57;;;;;;;4.22;2.15;;;;;;;8.79;66.03;97098.06;1668132;85;22030;-70
2020/12/30 12:19:29;;;;;;;3.05;2.20;;;;;;;8.90;66.00;97097.17;1667885;85;21020;-70
2020/12/30 12:21:58;;;;;;;5.12;2.85;;;;;;;9.00;65.49;97106.63;1669121;85;21032;-69
2020/12/30 12:24:25;;;;;;;3.65;2.42;;;;;;;9.09;65.28;97109.03;1668982;85;21163;-68
2020/12/30 12:26:54;;;;;;;2.87;2.00;;;;;;;9.16;64.89;97111.54;1669362;85;20982;-66
2020/12/30 12:29:37;;;;;;;5.37;2.60;;;;;;;9.22;64.68;97107.00;1669556;86;21394;-68
2020/12/30 12:32:19;;;;;;;5.55;2.55;;;;;;;9.25;64.23;97110.77;1682823;84;20952;-67
2020/12/30 12:34:51;;;;;;;8.00;3.47;;;;;;;9.31;64.12;97096.85;1653189;86;21040;-66
2020/12/30 12:37:20;;;;;;;5.67;4.67;;;;;;;9.33;64.14;97094.05;1670077;85;21028;-68
2020/12/30 12:39:49;;;;;;;4.83;3.00;;;;;;;9.35;64.29;97086.71;1670149;86;21025;-68
2020/12/30 12:42:18;;;;;;;3.25;1.60;;;;;;;9.36;64.14;97086.58;1670016;84;21387;-69
2020/12/30 12:44:45;;;;;;;3.65;1.70;;;;;;;9.37;63.69;97068.20;1669975;85;20925;-68
2020/12/30 12:47:13;;;;;;;6.80;1.70;;;;;;;9.39;63.60;97069.41;1670110;86;20961;-67
2020/12/30 12:49:42;;;;;;;1.85;1.35;;;;;;;9.42;63.85;97072.33;1670078;86;20973;-68
2020/12/30 12:52:09;;;;;;;1.02;0.80;;;;;;;9.43;63.64;97088.27;1670176;86;21005;-68
2020/12/30 12:54:37;;;;;;;5.17;1.55;;;;;;;9.47;63.26;97077.62;1670116;86;21207;-68
2020/12/30 12:57:05;;;;;;;2.77;1.70;;;;;;;9.49;63.43;97084.20;1670254;84;20966;-68
2020/12/30 12:59:35;;;;;;;2.52;1.50;;;;;;;9.50;63.26;97085.91;1670286;86;20942;-67
2020/12/30 13:02:06;;;;;;;2.37;1.67;;;;;;;9.51;63.22;97091.64;1670344;86;21374;-69
2020/12/30 13:04:35;;;;;;;3.52;1.57;;;;;;;9.52;63.32;97096.00;1709097;83;21048;-67
2020/12/30 13:07:03;;;;;;;6.20;1.40;;;;;;;9.52;63.40;97101.36;1710251;83;21353;-68
2020/12/30 13:09:32;;;;;;;7.35;2.00;;;;;;;9.49;63.42;97089.55;1710182;83;21362;-68
2020/12/30 13:12:00;;;;;;;3.12;1.72;;;;;;;9.47;63.55;97098.23;1710206;83;21017;-67
2020/12/30 13:14:27;;;;;;;3.85;1.77;;;;;;;9.44;63.48;97109.21;1710095;84;21067;-68
2020/12/30 13:16:54;;;;;;;3.50;1.90;;;;;;;9.39;63.61;97118.48;1710259;83;20925;-67
2020/12/30 13:19:24;;;;;;;4.10;1.40;;;;;;;9.34;63.64;97112.67;1710162;83;21384;-68
2020/12/30 13:21:52;;;;;;;2.90;1.37;;;;;;;9.33;63.73;97104.77;1710151;84;20936;-68
2020/12/30 13:24:19;;;;;;;4.58;1.30;;;;;;;9.30;63.74;97115.73;1710114;84;21001;-67
2020/12/30 13:26:48;;;;;;;9.98;5.97;;;;;;;9.27;63.85;97110.64;1710183;84;20996;-67
2020/12/30 13:29:15;;;;;;;12.20;6.15;;;;;;;9.25;64.00;97118.80;1710208;84;20929;-68
2020/12/30 13:31:50;;;;;;;9.63;3.35;;;;;;;9.25;64.05;97116.62;1710165;84;22641;-66
2020/12/30 13:34:19;;;;;;;3.42;2.15;;;;;;;9.24;63.99;97125.16;1710286;84;21454;-67
2020/12/30 13:36:46;;;;;;;11.28;4.08;;;;;;;9.24;63.96;97127.84;1710377;83;20941;-67
2020/12/30 13:39:14;;;;;;;5.92;2.50;;;;;;;9.23;64.04;97130.98;1710259;84;20941;-67
2020/12/30 13:41:42;;;;;;;2.77;2.22;;;;;;;9.25;64.04;97134.87;1710210;84;20934;-68
2020/12/30 13:44:09;;;;;;;10.23;3.35;;;;;;;9.24;64.08;97125.16;1710140;84;21426;-67
2020/12/30 13:46:38;;;;;;;9.28;3.52;;;;;;;9.25;64.18;97120.64;1710116;84;21073;-67
2020/12/30 13:49:07;;;;;;;9.00;3.80;;;;;;;9.23;64.19;97124.80;1710143;83;21032;-68
2020/12/30 13:51:35;;;;;;;7.62;4.08;;;;;;;9.23;64.15;97138.19;1710130;84;21493;-68
2020/12/30 13:54:02;;;;;;;19.82;5.28;;;;;;;9.21;64.22;97132.12;1710194;84;20934;-68
2020/12/30 13:56:31;;;;;;;14.30;6.65;;;;;;;9.19;64.32;97128.70;1710141;84;21262;-68
2020/12/30 13:58:58;;;;;;;10.18;3.92;;;;;;;9.17;64.44;97134.68;1710114;84;21001;-67
2020/12/30 14:01:26;;;;;;;10.55;3.52;;;;;;;9.14;64.46;97134.44;1710193;83;20937;-69
2020/12/30 14:03:55;;;;;;;9.08;2.62;;;;;;;9.11;64.56;97144.06;1714674;82;20901;-68
2020/12/30 14:06:25;;;;;;;8.33;4.40;;;;;;;9.11;64.62;97141.89;1718104;83;21358;-68
2020/12/30 14:08:52;;;;;;;23.95;6.17;;;;;;;9.08;64.65;97143.48;1718214;83;22278;-68
2020/12/30 14:11:21;;;;;;;30.15;6.92;;;;;;;9.06;64.88;97150.80;1718041;83;20954;-68
2020/12/30 14:13:48;;;;;;;10.90;2.45;;;;;;;9.03;65.07;97143.39;1718070;82;21504;-67
2020/12/30 14:16:17;;;;;;;22.85;4.58;;;;;;;9.00;65.22;97146.33;1717996;83;21071;-67
2020/12/30 14:18:45;;;;;;;22.22;5.22;;;;;;;8.96;65.26;97150.22;1718115;83;20901;-67
2020/12/30 14:21:15;;;;;;;11.68;5.42;;;;;;;8.93;65.46;97157.17;1718016;83;21280;-66
2020/12/30 14:23:43;;;;;;;16.50;11.03;;;;;;;8.90;65.52;97164.12;1718108;83;21501;-68
2020/12/30 14:26:11;;;;;;;9.10;6.80;;;;;;;8.88;65.60;97161.19;1718053;82;21524;-68
2020/12/30 14:28:38;;;;;;;19.98;7.85;;;;;;;8.84;65.55;97165.95;1718052;83;21004;-69
2020/12/30 14:31:07;;;;;;;31.87;8.93;;;;;;;8.83;65.64;97175.83;1718054;83;20996;-67
2020/12/30 14:33:37;;;;;;;94.00;84.50;;;;;;;8.81;65.68;97171.56;1718026;82;21279;-68
2020/12/30 14:36:04;;;;;;;354.15;315.00;;;;;;;8.80;65.79;97176.58;1717909;83;22054;-68
2020/12/30 14:38:32;;;;;;;64.10;53.42;;;;;;;8.77;66.01;97178.16;1718045;83;20925;-67
2020/12/30 14:41:00;;;;;;;44.90;27.93;;;;;;;8.76;66.01;97184.48;1718016;83;21032;-68
2020/12/30 14:43:28;;;;;;;10.65;8.03;;;;;;;8.74;66.15;97175.23;1718046;83;21004;-68
2020/12/30 14:45:56;;;;;;;11.93;5.50;;;;;;;8.70;66.25;97181.80;1718022;83;21369;-69
2020/12/30 14:48:24;;;;;;;29.70;8.48;;;;;;;8.70;66.30;97176.95;1717997;83;20945;-68
2020/12/30 14:50:53;;;;;;;16.12;8.00;;;;;;;8.67;66.41;97184.27;1716755;83;21405;-67
2020/12/30 14:53:20;;;;;;;13.20;9.68;;;;;;;8.67;66.45;97176.23;1718008;83;21004;-68
2020/12/30 14:55:48;;;;;;;12.88;10.70;;;;;;;8.64;66.43;97176.48;1717929;83;21011;-67
2020/12/30 14:58:17;;;;;;;16.73;13.48;;;;;;;8.62;66.46;97174.39;1718106;82;21355;-68
2020/12/30 15:00:44;;;;;;;25.05;13.95;;;;;;;8.61;66.56;97177.22;1718010;83;20909;-68
2020/12/30 15:03:12;;;;;;;25.55;14.90;;;;;;;8.57;66.60;97174.42;1704307;83;21074;-68
2020/12/30 15:05:43;;;;;;;36.88;17.12;;;;;;;8.50;66.65;97170.90;1681730;85;21008;-69
2020/12/30 15:08:11;;;;;;;37.08;15.78;;;;;;;8.47;67.00;97163.61;1710368;83;21392;-68
2020/12/30 15:10:40;;;;;;;28.02;14.15;;;;;;;8.40;67.04;97171.22;1681938;84;21011;-67
2020/12/30 15:13:08;;;;;;;39.58;15.53;;;;;;;8.35;67.31;97172.09;1709264;83;20987;-69
2020/12/30 15:15:36;;;;;;;21.33;11.20;;;;;;;8.30;67.58;97171.12;1677844;85;20955;-68
2020/12/30 15:18:04;;;;;;;26.80;11.18;;;;;;;8.26;67.65;97183.05;1710864;83;20907;-68
2020/12/30 15:20:32;;;;;;;33.42;11.88;;;;;;;8.22;67.82;97184.75;1712083;83;20907;-68
2020/12/30 15:22:59;;;;;;;22.60;9.50;;;;;;;8.18;67.92;97189.47;1682159;85;22261;-67
2020/12/30 15:25:28;;;;;;;25.68;10.10;;;;;;;8.12;67.97;97181.47;1711304;83;20970;-69
2020/12/30 15:27:55;;;;;;;18.00;10.28;;;;;;;8.07;68.16;97172.09;1679987;85;20968;-67
2020/12/30 15:30:23;;;;;;;17.23;9.73;;;;;;;8.03;68.21;97173.32;1710893;83;20927;-68
2020/12/30 15:32:53;;;;;;;21.15;11.83;;;;;;;7.94;68.42;97181.07;1709711;83;20936;-68
2020/12/30 15:35:20;;;;;;;20.55;11.68;;;;;;;7.89;68.55;97190.44;1681889;85;21217;-67
2020/12/30 15:37:47;;;;;;;17.27;12.65;;;;;;;7.83;68.74;97194.42;1711843;82;21043;-67
2020/12/30 15:40:15;;;;;;;13.55;10.13;;;;;;;7.77;69.08;97206.92;1682041;85;20940;-69
2020/12/30 15:42:42;;;;;;;19.02;11.20;;;;;;;7.73;69.41;97208.15;1710198;83;21516;-68
2020/12/30 15:45:10;;;;;;;15.85;10.13;;;;;;;7.69;69.71;97213.35;1681905;85;21560;-68
2020/12/30 15:47:38;;;;;;;25.08;12.90;;;;;;;7.67;69.94;97215.30;1708705;84;21570;-68
2020/12/30 15:50:06;;;;;;;24.23;13.10;;;;;;;7.64;69.94;97212.86;1711997;83;20959;-68
2020/12/30 15:52:33;;;;;;;19.20;13.93;;;;;;;7.60;70.07;97215.77;1712119;83;20928;-68
2020/12/30 15:55:01;;;;;;;42.90;16.25;;;;;;;7.58;70.25;97220.84;1712119;83;22223;-67
2020/12/30 15:57:28;;;;;;;37.03;15.43;;;;;;;7.55;70.39;97215.27;1690706;83;21004;-68
2020/12/30 15:59:56;;;;;;;42.10;16.95;;;;;;;7.53;70.37;97209.66;1712297;83;21373;-69
2020/12/30 16:02:24;;;;;;;15.10;11.35;;;;;;;7.50;70.56;97218.75;1711604;83;20944;-67
2020/12/30 16:04:52;;;;;;;12.70;11.00;;;;;;;7.47;71.16;97217.65;1714773;82;20921;-68
2020/12/30 16:07:19;;;;;;;15.48;10.50;;;;;;;7.46;71.17;97225.31;1714756;82;20944;-67
2020/12/30 16:09:48;;;;;;;12.18;8.13;;;;;;;7.46;71.14;97220.44;1714565;81;21608;-67
2020/12/30 16:12:19;;;;;;;11.28;8.70;;;;;;;7.48;71.15;97228.72;1715494;82;21211;-68
2020/12/30 16:14:49;;;;;;;16.40;10.38;;;;;;;7.47;71.21;97228.34;1712594;82;21007;-68
2020/12/30 16:17:17;;;;;;;17.32;11.53;;;;;;;7.47;71.18;97222.99;1714165;83;21071;-68
2020/12/30 16:19:45;;;;;;;20.23;10.65;;;;;;;7.48;70.99;97222.03;1717364;82;20924;-68
2020/12/30 16:22:13;;;;;;;20.85;12.33;;;;;;;7.48;70.97;97228.72;1716961;82;20929;-68
2020/12/30 16:24:42;;;;;;;33.02;20.62;;;;;;;7.45;71.34;97224.09;1713546;82;21432;-67
2020/12/30 16:27:12;;;;;;;42.70;24.47;;;;;;;7.40;71.29;97232.45;1715369;82;21493;-67
2020/12/30 16:29:41;;;;;;;44.73;25.20;;;;;;;7.37;71.28;97236.20;1714996;82;20957;-68
2020/12/30 16:32:09;;;;;;;46.05;25.30;;;;;;;7.34;71.35;97232.91;1716569;82;20977;-69
2020/12/30 16:34:37;;;;;;;45.67;24.75;;;;;;;7.31;71.37;97235.81;1714918;82;21028;-67
2020/12/30 16:37:04;;;;;;;51.20;27.35;;;;;;;7.28;71.46;97244.05;1714591;83;21386;-68
2020/12/30 16:39:32;;;;;;;57.23;27.15;;;;;;;7.26;71.67;97245.50;1714497;83;20956;-68
2020/12/30 16:41:59;;;;;;;52.48;26.37;;;;;;;7.24;71.77;97244.28;1710412;83;21000;-68
2020/12/30 16:44:33;;;;;;;50.38;27.37;;;;;;;7.24;71.75;97250.95;1714258;83;20991;-68
2020/12/30 16:47:01;;;;;;;45.40;28.83;;;;;;;7.21;71.79;97252.52;1714715;83;21032;-69
2020/12/30 16:49:28;;;;;;;62.15;31.62;;;;;;;7.21;71.82;97253.85;1714274;83;21371;-68
2020/12/30 16:51:58;;;;;;;62.85;35.90;;;;;;;7.19;71.86;97259.80;1716314;82;21008;-68
2020/12/30 16:54:26;;;;;;;74.65;41.98;;;;;;;7.17;71.87;97259.07;1716671;82;20965;-69
2020/12/30 16:56:55;;;;;;;72.78;37.45;;;;;;;7.16;71.97;97260.52;1714999;81;21433;-69
2020/12/30 16:59:22;;;;;;;61.35;35.03;;;;;;;7.15;72.02;97267.66;1714076;82;20929;-68
2020/12/30 17:01:51;;;;;;;64.27;35.08;;;;;;;7.13;72.03;97269.59;1713849;83;21269;-68
2020/12/30 17:04:18;;;;;;;93.70;40.17;;;;;;;7.13;72.18;97272.76;1721292;82;21027;-68
2020/12/30 17:06:55;;;;;;;61.37;31.75;;;;;;;7.15;72.33;97271.66;1722152;83;20960;-68
2020/12/30 17:09:24;;;;;;;78.70;34.20;;;;;;;7.17;72.44;97268.41;1722710;83;20932;-68
2020/12/30 17:11:56;;;;;;;70.10;35.15;;;;;;;7.18;72.65;97274.59;1722419;83;20940;-68
2020/12/30 17:14:24;;;;;;;60.70;33.25;;;;;;;7.19;72.69;97283.83;1722434;83;21374;-68
2020/12/30 17:16:54;;;;;;;69.22;32.90;;;;;;;7.20;72.66;97280.17;1722507;83;20952;-67
2020/12/30 17:19:22;;;;;;;40.98;25.15;;;;;;;7.21;72.61;97275.70;1721273;83;20967;-68
2020/12/30 17:21:58;;;;;;;46.58;27.30;;;;;;;7.23;72.57;97274.61;1722159;83;21548;-67
2020/12/30 17:24:28;;;;;;;56.68;25.32;;;;;;;7.22;72.56;97267.59;1722464;83;20947;-67
2020/12/30 17:27:01;;;;;;;38.98;21.55;;;;;;;7.26;72.60;97272.70;1722462;83;21191;-66
2020/12/30 18:44:55;;;;;;;40.75;23.15;;;;;;;7.10;73.83;97282.33;1773547;80;21061;-71
2020/12/30 18:47:26;;;;;;;44.13;21.35;;;;;;;7.07;73.96;97286.06;1754998;81;21159;-76
2020/12/30 18:49:53;;;;;;;31.37;20.52;;;;;;;7.04;74.01;97287.62;1780064;80;20947;-77
2020/12/30 18:52:21;;;;;;;26.42;18.45;;;;;;;7.03;74.11;97295.25;1755265;81;20931;-76
2020/12/30 18:54:49;;;;;;;37.13;22.27;;;;;;;7.02;74.38;97286.39;1779950;80;20935;-77
2020/12/30 18:57:17;;;;;;;42.03;21.35;;;;;;;7.03;74.44;97277.89;1755334;81;21412;-76
2020/12/30 18:59:46;;;;;;;42.70;21.77;;;;;;;7.02;74.50;97270.38;1779951;80;20971;-75
2020/12/30 19:02:14;;;;;;;33.60;22.27;;;;;;;7.04;74.51;97276.94;1755323;81;21563;-76
2020/12/30 19:04:41;;;;;;;31.20;19.25;;;;;;;7.04;74.55;97276.45;1779997;80;20935;-76
2020/12/30 19:07:13;;;;;;;39.60;19.87;;;;;;;7.04;74.61;97283.12;1755150;81;20944;-75
2020/12/30 19:09:42;;;;;;;44.33;19.55;;;;;;;7.08;74.58;97289.11;1780289;80;21460;-76
2020/12/30 19:12:11;;;;;;;33.85;19.40;;;;;;;7.10;74.61;97288.51;1755189;81;21434;-77
2020/12/30 19:14:38;;;;;;;33.40;19.35;;;;;;;7.09;74.68;97287.28;1780374;80;20931;-75
2020/12/30 19:17:07;;;;;;;46.58;25.40;;;;;;;7.08;74.68;97298.45;1755536;81;21381;-76
2020/12/30 19:19:36;;;;;;;49.42;28.95;;;;;;;7.08;74.90;97309.14;1779970;80;20983;-76
2020/12/30 19:22:03;;;;;;;53.52;31.45;;;;;;;7.07;75.02;97322.11;1755726;81;20916;-76
2020/12/30 19:24:30;;;;;;;57.98;32.40;;;;;;;7.04;75.05;97320.50;1780404;80;21337;-76
2020/12/30 19:26:58;;;;;;;53.25;30.45;;;;;;;7.03;75.20;97320.15;1755226;81;20995;-77
2020/12/30 19:29:25;;;;;;;50.15;28.77;;;;;;;7.02;75.36;97328.27;1780091;80;20987;-77
2020/12/30 19:31:57;;;;;;;52.85;30.27;;;;;;;7.00;75.54;97334.18;1755250;81;20960;-77
2020/12/30 19:34:25;;;;;;;55.05;31.02;;;;;;;6.98;75.73;97328.11;1780153;80;20979;-78
2020/12/30 19:36:52;;;;;;;59.98;29.95;;;;;;;6.98;75.78;97336.11;1755206;81;21390;-76
2020/12/30 19:39:22;;;;;;;48.92;27.15;;;;;;;6.97;75.86;97339.73;1780031;80;21314;-76
2020/12/30 19:41:50;;;;;;;41.45;26.12;;;;;;;6.94;75.98;97327.48;1755371;81;20939;-77
2020/12/30 19:44:18;;;;;;;64.32;33.10;;;;;;;6.94;76.10;97333.31;1777885;79;20927;-77
2020/12/30 19:46:47;;;;;;;77.22;36.90;;;;;;;6.93;76.34;97339.11;1747251;82;21635;-76
2020/12/30 19:49:15;;;;;;;59.18;30.90;;;;;;;6.92;76.84;97337.42;1769305;80;22109;-77
2020/12/30 19:51:45;;;;;;;62.10;32.15;;;;;;;6.93;77.02;97338.27;1747110;82;21018;-77
2020/12/30 19:54:12;;;;;;;49.13;26.52;;;;;;;6.93;77.33;97338.27;1769378;81;20913;-76
2020/12/30 19:56:39;;;;;;;57.25;30.27;;;;;;;6.93;77.53;97331.59;1747243;82;20975;-76
2020/12/30 19:59:07;;;;;;;44.23;23.92;;;;;;;6.93;77.62;97324.92;1769420;81;20972;-76
2020/12/30 20:01:36;;;;;;;47.95;26.12;;;;;;;6.94;77.86;97323.97;1747198;82;21227;-75
2020/12/30 20:04:04;;;;;;;54.15;26.27;;;;;;;6.95;78.17;97325.66;1769263;81;21677;-76
2020/12/30 20:06:34;;;;;;;47.20;25.30;;;;;;;6.94;78.62;97323.97;1747225;82;21058;-76
2020/12/30 20:09:05;;;;;;;36.05;22.27;;;;;;;6.95;78.72;97322.98;1769384;81;20932;-76
2020/12/30 20:11:31;;;;;;;25.92;17.55;;;;;;;6.95;78.85;97337.67;1747336;82;21381;-76
2020/12/30 20:13:59;;;;;;;41.63;21.70;;;;;;;6.93;79.00;97335.11;1769448;81;21199;-75
2020/12/30 20:16:27;;;;;;;44.35;25.32;;;;;;;6.95;79.07;97340.34;1747241;82;21444;-76
2020/12/30 20:18:55;;;;;;;55.70;29.92;;;;;;;6.95;79.25;97339.00;1769323;81;21548;-77
2020/12/30 20:21:28;;;;;;;49.27;28.80;;;;;;;6.95;79.49;97345.67;1747295;82;21361;-76
2020/12/30 20:23:57;;;;;;;;;;;;;;;6.95;79.87;97347.02;1772009;81;21007;-76
2020/12/30 20:26:26;;;;;;;43.65;25.12;;;;;;;6.93;80.12;97355.13;1727007;82;22327;-75
2020/12/30 20:28:54;;;;;;;38.73;22.77;;;;;;;6.90;80.43;97343.83;1769300;81;21023;-75
2020/12/30 20:31:21;;;;;;;35.73;23.75;;;;;;;6.87;80.56;97353.77;1747242;82;20932;-75
2020/12/30 20:33:49;;;;;;;36.73;23.30;;;;;;;6.88;80.49;97358.13;1769345;81;20933;-75
2020/12/30 20:36:17;;;;;;;34.15;22.45;;;;;;;6.87;80.42;97351.10;1747238;82;20979;-76
2020/12/30 20:38:45;;;;;;;37.55;23.10;;;;;;;6.86;80.24;97358.72;1769327;81;21186;-76
2020/12/30 20:41:14;;;;;;;41.58;27.70;;;;;;;6.84;80.19;97363.33;1747154;82;21392;-76
2020/12/30 20:43:41;;;;;;;32.98;23.92;;;;;;;6.83;80.09;97363.44;1769290;81;21353;-76
2020/12/30 20:46:17;;;;;;;52.35;31.75;;;;;;;6.81;80.14;97364.87;1747100;82;20936;-75
2020/12/30 20:48:44;;;;;;;43.52;29.10;;;;;;;6.82;80.22;97373.23;1772116;81;21333;-75
2020/12/30 20:51:13;;;;;;;63.28;36.75;;;;;;;6.82;80.38;97375.06;1747203;82;21205;-75
2020/12/30 20:53:40;;;;;;;69.20;40.05;;;;;;;6.82;80.24;97375.91;1771945;80;20927;-75
2020/12/30 20:56:12;;;;;;;65.83;40.98;;;;;;;6.81;80.17;97367.55;1747171;82;20897;-76
2020/12/30 20:58:42;;;;;;;49.05;30.82;;;;;;;6.80;80.22;97367.66;1771987;81;20936;-75
2020/12/30 21:01:11;;;;;;;32.35;22.82;;;;;;;6.80;80.22;97371.16;1747107;82;20928;-76
2020/12/30 21:03:38;;;;;;;18.00;14.13;;;;;;;6.81;80.25;97378.22;1771912;81;21358;-75
2020/12/30 21:06:09;;;;;;;19.62;15.55;;;;;;;6.81;80.34;97375.55;1747008;82;21026;-75
2020/12/30 21:08:36;;;;;;;19.50;14.35;;;;;;;6.82;80.40;97377.23;1771991;81;20979;-75
2020/12/30 21:11:08;;;;;;;17.92;14.43;;;;;;;6.84;80.38;97382.02;1747178;82;20916;-76
2020/12/30 21:13:38;;;;;;;31.90;20.77;;;;;;;6.86;80.36;97400.09;1772219;81;21373;-77
2020/12/30 21:16:06;;;;;;;25.68;18.27;;;;;;;6.89;80.63;97407.05;1746870;82;21163;-75
2020/12/30 21:18:33;;;;;;;26.35;17.50;;;;;;;6.90;80.75;97410.06;1771991;81;20955;-75
2020/12/30 21:21:04;;;;;;;28.77;19.62;;;;;;;6.91;80.90;97412.28;1747456;82;21472;-76
2020/12/30 21:23:31;;;;;;;24.95;18.07;;;;;;;6.91;80.94;97422.47;1772035;81;20923;-76
2020/12/30 21:25:58;;;;;;;23.12;17.15;;;;;;;6.91;81.07;97423.80;1747284;82;21023;-75
2020/12/30 21:28:26;;;;;;;21.82;17.40;;;;;;;6.92;81.01;97420.64;1772181;81;22696;-74
2020/12/30 21:30:53;;;;;;;20.43;16.52;;;;;;;6.92;81.15;97413.50;1747279;82;20956;-75
2020/12/30 21:33:23;;;;;;;20.72;16.55;;;;;;;6.94;81.30;97409.39;1772093;81;20892;-74
2020/12/30 21:35:53;;;;;;;22.05;16.32;;;;;;;6.93;81.51;97413.02;1742719;82;20946;-75
2020/12/30 21:38:20;;;;;;;21.37;17.05;;;;;;;6.92;81.75;97418.84;1772079;81;20880;-75
2020/12/30 21:40:48;;;;;;;25.50;17.55;;;;;;;6.92;81.87;97430.86;1747353;82;21436;-74
2020/12/30 21:43:18;;;;;;;19.65;16.30;;;;;;;6.91;81.82;97425.13;1772120;81;20959;-75
2020/12/30 21:45:45;;;;;;;21.48;15.83;;;;;;;6.90;81.73;97417.23;1747113;81;21055;-75
2020/12/30 21:48:12;;;;;;;18.92;15.98;;;;;;;6.91;81.61;97421.62;1772040;81;20916;-75
2020/12/30 21:50:40;;;;;;;19.37;15.53;;;;;;;6.90;81.58;97419.91;1747375;82;21500;-75
2020/12/30 21:53:08;;;;;;;20.35;16.57;;;;;;;6.89;81.71;97424.40;1772010;81;21050;-75
2020/12/30 21:55:35;;;;;;;20.27;17.23;;;;;;;6.87;81.85;97428.51;1747170;82;20983;-73
2020/12/30 21:58:02;;;;;;;21.62;16.02;;;;;;;6.86;81.96;97423.28;1772126;81;20944;-74
2020/12/30 22:00:30;;;;;;;24.65;16.57;;;;;;;6.85;81.97;97427.73;1747210;82;20920;-74
2020/12/30 22:02:57;;;;;;;27.95;19.48;;;;;;;6.85;82.09;97433.08;1772051;81;21007;-75
2020/12/30 22:05:26;;;;;;;19.15;14.33;;;;;;;6.84;82.19;97434.06;1747351;82;22159;-74
2020/12/30 22:07:53;;;;;;;20.23;14.07;;;;;;;6.84;82.27;97426.05;1771968;81;20963;-75
2020/12/30 22:10:21;;;;;;;29.37;21.70;;;;;;;6.85;82.32;97422.89;1747596;82;20931;-75
2020/12/30 22:12:50;;;;;;;28.85;22.25;;;;;;;6.84;82.35;97419.38;1772315;80;21373;-75
2020/12/30 22:15:18;;;;;;;29.75;21.12;;;;;;;6.85;82.36;97418.39;1747463;82;20992;-74
2020/12/30 22:17:45;;;;;;;35.33;23.55;;;;;;;6.87;82.30;97423.17;1772024;81;21504;-75
2020/12/30 22:20:13;;;;;;;35.38;22.95;;;;;;;6.86;82.30;97421.45;1747324;82;21491;-75
2020/12/30 22:22:42;;;;;;;28.00;20.65;;;;;;;6.87;82.21;97419.63;1771926;81;20920;-74
2020/12/30 22:25:09;;;;;;;27.22;18.60;;;;;;;6.85;82.16;97418.39;1747355;82;20928;-74
2020/12/30 22:27:37;;;;;;;26.50;17.52;;;;;;;6.85;82.04;97425.07;1772072;80;20932;-74
2020/12/30 22:30:05;;;;;;;18.87;14.78;;;;;;;6.86;81.97;97429.95;1747291;82;21372;-74
2020/12/30 22:32:33;;;;;;;17.25;12.75;;;;;;;6.86;81.87;97425.45;1771981;81;21388;-75
2020/12/30 22:35:00;;;;;;;17.23;12.43;;;;;;;6.86;81.87;97422.78;1747190;82;20937;-75
2020/12/30 22:37:29;;;;;;;11.73;9.15;;;;;;;6.84;81.80;97422.05;1772038;81;20940;-75
2020/12/30 22:39:56;;;;;;;7.58;5.12;;;;;;;6.83;81.67;97427.00;1747402;82;21527;-75
2020/12/30 22:42:24;;;;;;;4.95;3.40;;;;;;;6.82;81.41;97427.95;1772012;80;21488;-75
2020/12/30 22:44:51;;;;;;;4.58;2.55;;;;;;;6.82;81.19;97425.28;1746967;81;21032;-74
2020/12/30 22:47:19;;;;;;;4.12;2.15;;;;;;;6.83;81.05;97425.67;1771850;80;20956;-75
2020/12/30 22:49:48;;;;;;;3.00;2.00;;;;;;;6.84;80.99;97424.72;1747152;82;21452;-75
2020/12/30 22:52:16;;;;;;;2.85;1.87;;;;;;;6.84;80.77;97414.05;1771939;81;20995;-74
2020/12/30 22:54:44;;;;;;;4.03;1.40;;;;;;;6.85;80.60;97413.06;1747123;82;21986;-76
2020/12/30 22:57:12;;;;;;;2.02;1.60;;;;;;;6.85;80.54;97406.39;1771939;81;20935;-75
2020/12/30 22:59:39;;;;;;;2.12;1.60;;;;;;;6.87;80.29;97396.48;1747179;82;20888;-75
2020/12/30 23:02:06;;;;;;;2.22;1.60;;;;;;;6.87;80.26;97396.48;1772122;80;20979;-75
2020/12/30 23:04:35;;;;;;;3.33;1.87;;;;;;;6.87;80.24;97387.59;1747157;82;21023;-75
2020/12/30 23:07:03;;;;;;;4.37;3.00;;;;;;;6.86;80.18;97385.42;1771892;81;21360;-75
2020/12/30 23:09:30;;;;;;;6.50;4.67;;;;;;;6.85;80.11;97385.03;1772030;80;20939;-75
2020/12/30 23:11:58;;;;;;;10.68;7.35;;;;;;;6.85;79.99;97382.85;1772033;80;20952;-76
2020/12/30 23:14:25;;;;;;;10.10;8.00;;;;;;;6.82;80.02;97377.23;1747014;82;20983;-74
2020/12/30 23:16:53;;;;;;;8.48;6.15;;;;;;;6.81;80.09;97390.23;1772089;81;20931;-76
2020/12/30 23:19:22;;;;;;;8.13;5.95;;;;;;;6.78;80.14;97405.12;1747194;82;21808;-76
2020/12/30 23:21:51;;;;;;;8.43;6.33;;;;;;;6.75;80.21;97408.47;1773719;80;20943;-75
2020/12/30 23:24:18;;;;;;;8.53;6.22;;;;;;;6.71;80.34;97411.84;1747278;82;21429;-76
2020/12/30 23:26:46;;;;;;;13.38;7.17;;;;;;;6.70;80.38;97418.16;1771949;81;21507;-76
2020/12/30 23:29:13;;;;;;;10.35;7.40;;;;;;;6.68;80.51;97428.06;1747324;82;21341;-75
2020/12/30 23:31:41;;;;;;;9.75;7.58;;;;;;;6.66;80.63;97432.17;1772010;81;22205;-76
2020/12/30 23:34:09;;;;;;;11.22;8.80;;;;;;;6.63;80.69;97420.86;1747189;82;20991;-75
2020/12/30 23:36:36;;;;;;;13.62;9.98;;;;;;;6.62;80.76;97417.81;1772040;81;20932;-75
2020/12/30 23:39:03;;;;;;;10.78;8.30;;;;;;;6.60;80.84;97423.73;1712922;83;20914;-75
2020/12/30 23:41:31;;;;;;;8.10;7.15;;;;;;;6.60;80.91;97435.74;1747295;82;20932;-74
2020/12/30 23:44:01;;;;;;;9.93;8.93;;;;;;;6.59;81.08;97436.23;1772014;80;22668;-75
2020/12/30 23:46:28;;;;;;;6.97;6.28;;;;;;;6.58;81.28;97425.67;1746474;82;20991;-75
2020/12/30 23:48:56;;;;;;;7.10;6.40;;;;;;;6.53;81.40;97421.98;1774524;80;21007;-73
2020/12/30 23:51:23;;;;;;;7.72;6.92;;;;;;;6.49;81.91;97418.64;1747210;82;20928;-74
2020/12/30 23:53:51;;;;;;;7.87;7.08;;;;;;;6.49;82.01;97417.31;1774511;80;20908;-74
2020/12/30 23:56:29;;;;;;;9.60;7.80;;;;;;;6.49;82.00;97421.80;1747119;82;21206;-74
2020/12/30 23:58:58;;;;;;;9.55;8.65;;;;;;;6.47;81.91;97419.73;1774328;80;20959;-74
